sensor_id;sensor_type;location;lat;lon;timestamp;temperature;humidity
25949;DHT22;13961;51.178;4.448;2024-03-22T00:01:44;15.60;99.90
25949;DHT22;13961;51.178;4.448;2024-03-22T00:04:10;15.70;99.90
25949;DHT22;13961;51.178;4.448;2024-03-22T00:06:36;15.50;99.90
25949;DHT22;13961;51.178;4.448;2024-03-22T00:09:02;15.60;99.90
25949;DHT22;13961;51.178;4.448;2024-03-22T00:11:28;15.60;99.90
25949;DHT22;13961;51.178;4.448;2024-03-22T00:13:54;15.70;99.90
25949;DHT22;13961;51.178;4.448;2024-03-22T00:16:19;15.70;99.90
25949;DHT22;13961;51.178;4.448;2024-03-22T00:18:45;15.50;99.90
25949;DHT22;13961;51.178;4.448;2024-03-22T00:21:11;15.60;99.90
25949;DHT22;13961;51.178;4.448;2024-03-22T00:23:36;15.60;99.90
25949;DHT22;13961;51.178;4.448;2024-03-22T00:26:02;15.60;99.90
25949;DHT22;13961;51.178;4.448;2024-03-22T00:28:28;15.40;99.90
25949;DHT22;13961;51.178;4.448;2024-03-22T00:30:54;15.20;99.90
25949;DHT22;13961;51.178;4.448;2024-03-22T00:33:19;15.20;99.90
25949;DHT22;13961;51.178;4.448;2024-03-22T00:35:45;15.30;99.90
25949;DHT22;13961;51.178;4.448;2024-03-22T00:38:11;15.40;99.90
25949;DHT22;13961;51.178;4.448;2024-03-22T00:40:37;15.40;99.90
25949;DHT22;13961;51.178;4.448;2024-03-22T00:43:02;15.30;99.90
25949;DHT22;13961;51.178;4.448;2024-03-22T00:45:28;15.40;99.90
25949;DHT22;13961;51.178;4.448;2024-03-22T00:47:54;15.60;99.90
25949;DHT22;13961;51.178;4.448;2024-03-22T00:50:20;15.60;99.90
25949;DHT22;13961;51.178;4.448;2024-03-22T00:52:45;15.30;99.90
25949;DHT22;13961;51.178;4.448;2024-03-22T00:55:11;15.30;99.90
25949;DHT22;13961;51.178;4.448;2024-03-22T00:57:37;15.30;99.90
25949;DHT22;13961;51.178;4.448;2024-03-22T01:00:03;15.20;99.90
25949;DHT22;13961;51.178;4.448;2024-03-22T01:02:30;15.10;99.90
25949;DHT22;13961;51.178;4.448;2024-03-22T01:04:55;15.20;99.90
25949;DHT22;13961;51.178;4.448;2024-03-22T01:07:21;15.10;99.90
25949;DHT22;13961;51.178;4.448;2024-03-22T01:09:47;15.10;99.90
25949;DHT22;13961;51.178;4.448;2024-03-22T01:12:13;15.20;99.90
25949;DHT22;13961;51.178;4.448;2024-03-22T01:14:38;15.30;99.90
25949;DHT22;13961;51.178;4.448;2024-03-22T01:17:04;15.20;99.90
25949;DHT22;13961;51.178;4.448;2024-03-22T01:19:30;15.40;99.90
25949;DHT22;13961;51.178;4.448;2024-03-22T01:21:55;15.50;99.90
25949;DHT22;13961;51.178;4.448;2024-03-22T01:24:21;15.50;99.90
25949;DHT22;13961;51.178;4.448;2024-03-22T01:26:47;15.60;99.90
25949;DHT22;13961;51.178;4.448;2024-03-22T01:29:13;15.40;99.90
25949;DHT22;13961;51.178;4.448;2024-03-22T01:31:39;15.20;99.90
25949;DHT22;13961;51.178;4.448;2024-03-22T01:34:05;15.20;99.90
25949;DHT22;13961;51.178;4.448;2024-03-22T01:36:31;15.00;99.90
25949;DHT22;13961;51.178;4.448;2024-03-22T01:38:57;15.00;99.90
25949;DHT22;13961;51.178;4.448;2024-03-22T01:41:22;15.00;99.90
25949;DHT22;13961;51.178;4.448;2024-03-22T01:43:48;15.20;99.90
25949;DHT22;13961;51.178;4.448;2024-03-22T01:46:15;15.00;99.90
25949;DHT22;13961;51.178;4.448;2024-03-22T01:48:40;14.70;99.90
25949;DHT22;13961;51.178;4.448;2024-03-22T01:51:07;14.50;99.90
25949;DHT22;13961;51.178;4.448;2024-03-22T01:53:35;14.50;99.90
25949;DHT22;13961;51.178;4.448;2024-03-22T01:56:03;14.50;99.90
25949;DHT22;13961;51.178;4.448;2024-03-22T01:58:29;14.50;99.90
25949;DHT22;13961;51.178;4.448;2024-03-22T02:00:54;14.40;99.90
25949;DHT22;13961;51.178;4.448;2024-03-22T02:03:21;14.40;99.90
25949;DHT22;13961;51.178;4.448;2024-03-22T02:05:46;14.30;99.90
25949;DHT22;13961;51.178;4.448;2024-03-22T02:08:12;14.10;99.90
25949;DHT22;13961;51.178;4.448;2024-03-22T02:10:38;14.10;99.90
25949;DHT22;13961;51.178;4.448;2024-03-22T02:13:04;14.00;99.90
25949;DHT22;13961;51.178;4.448;2024-03-22T02:15:29;14.00;99.90
25949;DHT22;13961;51.178;4.448;2024-03-22T02:17:55;14.20;99.90
25949;DHT22;13961;51.178;4.448;2024-03-22T02:20:21;14.10;99.90
25949;DHT22;13961;51.178;4.448;2024-03-22T02:22:47;14.20;99.90
25949;DHT22;13961;51.178;4.448;2024-03-22T02:25:12;14.20;99.90
25949;DHT22;13961;51.178;4.448;2024-03-22T02:27:38;14.20;99.90
25949;DHT22;13961;51.178;4.448;2024-03-22T02:30:05;14.30;99.90
25949;DHT22;13961;51.178;4.448;2024-03-22T02:32:31;14.20;99.90
25949;DHT22;13961;51.178;4.448;2024-03-22T02:34:56;14.20;99.90
25949;DHT22;13961;51.178;4.448;2024-03-22T02:37:22;14.10;99.90
25949;DHT22;13961;51.178;4.448;2024-03-22T02:39:48;13.80;99.90
25949;DHT22;13961;51.178;4.448;2024-03-22T02:42:13;13.70;99.90
25949;DHT22;13961;51.178;4.448;2024-03-22T02:44:39;13.80;99.90
25949;DHT22;13961;51.178;4.448;2024-03-22T02:47:09;13.90;99.90
25949;DHT22;13961;51.178;4.448;2024-03-22T02:49:35;14.00;99.90
25949;DHT22;13961;51.178;4.448;2024-03-22T02:52:01;14.00;99.90
25949;DHT22;13961;51.178;4.448;2024-03-22T02:54:27;13.90;99.90
25949;DHT22;13961;51.178;4.448;2024-03-22T02:56:53;13.70;99.90
25949;DHT22;13961;51.178;4.448;2024-03-22T02:59:19;13.60;99.90
25949;DHT22;13961;51.178;4.448;2024-03-22T03:01:44;13.70;99.90
25949;DHT22;13961;51.178;4.448;2024-03-22T03:04:10;13.50;99.90
25949;DHT22;13961;51.178;4.448;2024-03-22T03:06:36;13.70;99.90
25949;DHT22;13961;51.178;4.448;2024-03-22T03:09:02;13.90;99.90
25949;DHT22;13961;51.178;4.448;2024-03-22T03:11:33;13.80;99.90
25949;DHT22;13961;51.178;4.448;2024-03-22T03:13:58;13.80;99.90
25949;DHT22;13961;51.178;4.448;2024-03-22T03:16:24;13.60;99.90
25949;DHT22;13961;51.178;4.448;2024-03-22T03:18:50;13.60;99.90
25949;DHT22;13961;51.178;4.448;2024-03-22T03:21:15;13.50;99.90
25949;DHT22;13961;51.178;4.448;2024-03-22T03:23:41;13.20;99.90
25949;DHT22;13961;51.178;4.448;2024-03-22T03:26:07;13.20;99.90
25949;DHT22;13961;51.178;4.448;2024-03-22T03:28:32;13.40;99.90
25949;DHT22;13961;51.178;4.448;2024-03-22T03:30:58;13.50;99.90
25949;DHT22;13961;51.178;4.448;2024-03-22T03:33:24;13.60;99.90
25949;DHT22;13961;51.178;4.448;2024-03-22T03:35:50;13.50;99.90
25949;DHT22;13961;51.178;4.448;2024-03-22T03:38:16;13.70;99.90
25949;DHT22;13961;51.178;4.448;2024-03-22T03:40:41;13.90;99.90
25949;DHT22;13961;51.178;4.448;2024-03-22T03:43:07;14.20;99.90
25949;DHT22;13961;51.178;4.448;2024-03-22T03:45:36;14.20;99.90
25949;DHT22;13961;51.178;4.448;2024-03-22T03:48:02;14.00;99.90
25949;DHT22;13961;51.178;4.448;2024-03-22T03:50:28;14.00;99.90
25949;DHT22;13961;51.178;4.448;2024-03-22T03:52:54;13.90;99.90
25949;DHT22;13961;51.178;4.448;2024-03-22T03:55:20;13.90;99.90
25949;DHT22;13961;51.178;4.448;2024-03-22T03:57:46;13.90;99.90
25949;DHT22;13961;51.178;4.448;2024-03-22T04:00:12;14.00;99.90
25949;DHT22;13961;51.178;4.448;2024-03-22T04:02:38;14.00;99.90
25949;DHT22;13961;51.178;4.448;2024-03-22T04:05:04;14.00;99.90
25949;DHT22;13961;51.178;4.448;2024-03-22T04:07:29;14.00;99.90
25949;DHT22;13961;51.178;4.448;2024-03-22T04:09:55;13.90;99.90
25949;DHT22;13961;51.178;4.448;2024-03-22T04:12:21;13.90;99.90
25949;DHT22;13961;51.178;4.448;2024-03-22T04:14:46;13.90;99.90
25949;DHT22;13961;51.178;4.448;2024-03-22T04:17:12;13.90;99.90
25949;DHT22;13961;51.178;4.448;2024-03-22T04:19:38;13.80;99.90
25949;DHT22;13961;51.178;4.448;2024-03-22T04:22:04;13.80;99.90
25949;DHT22;13961;51.178;4.448;2024-03-22T04:24:29;13.90;99.90
25949;DHT22;13961;51.178;4.448;2024-03-22T04:26:55;13.90;99.90
25949;DHT22;13961;51.178;4.448;2024-03-22T04:29:21;13.80;99.90
25949;DHT22;13961;51.178;4.448;2024-03-22T04:31:46;13.70;99.90
25949;DHT22;13961;51.178;4.448;2024-03-22T04:34:12;13.90;99.90
25949;DHT22;13961;51.178;4.448;2024-03-22T04:36:38;14.00;99.90
25949;DHT22;13961;51.178;4.448;2024-03-22T04:39:03;14.10;99.90
25949;DHT22;13961;51.178;4.448;2024-03-22T04:41:29;14.10;99.90
25949;DHT22;13961;51.178;4.448;2024-03-22T04:43:55;14.10;99.90
25949;DHT22;13961;51.178;4.448;2024-03-22T04:46:21;13.90;99.90
25949;DHT22;13961;51.178;4.448;2024-03-22T04:48:46;13.40;99.90
25949;DHT22;13961;51.178;4.448;2024-03-22T04:51:12;13.30;99.90
25949;DHT22;13961;51.178;4.448;2024-03-22T04:53:39;13.30;99.90
25949;DHT22;13961;51.178;4.448;2024-03-22T04:56:05;13.30;99.90
25949;DHT22;13961;51.178;4.448;2024-03-22T04:58:30;13.20;99.90
25949;DHT22;13961;51.178;4.448;2024-03-22T05:00:57;13.20;99.90
25949;DHT22;13961;51.178;4.448;2024-03-22T05:03:23;13.20;99.90
25949;DHT22;13961;51.178;4.448;2024-03-22T05:05:50;13.10;99.90
25949;DHT22;13961;51.178;4.448;2024-03-22T05:08:16;13.20;99.90
25949;DHT22;13961;51.178;4.448;2024-03-22T05:10:42;13.20;99.90
25949;DHT22;13961;51.178;4.448;2024-03-22T05:13:08;13.10;99.90
25949;DHT22;13961;51.178;4.448;2024-03-22T05:15:34;13.00;99.90
25949;DHT22;13961;51.178;4.448;2024-03-22T05:17:59;12.90;99.90
25949;DHT22;13961;51.178;4.448;2024-03-22T05:20:25;12.20;99.90
25949;DHT22;13961;51.178;4.448;2024-03-22T05:22:52;12.10;99.90
25949;DHT22;13961;51.178;4.448;2024-03-22T05:25:18;12.10;99.90
25949;DHT22;13961;51.178;4.448;2024-03-22T05:27:44;12.30;99.90
25949;DHT22;13961;51.178;4.448;2024-03-22T05:30:11;12.80;99.90
25949;DHT22;13961;51.178;4.448;2024-03-22T05:32:37;12.20;99.90
25949;DHT22;13961;51.178;4.448;2024-03-22T05:35:04;11.90;99.90
25949;DHT22;13961;51.178;4.448;2024-03-22T05:37:30;11.70;99.90
25949;DHT22;13961;51.178;4.448;2024-03-22T05:39:56;11.50;99.90
25949;DHT22;13961;51.178;4.448;2024-03-22T05:42:21;11.40;99.90
25949;DHT22;13961;51.178;4.448;2024-03-22T05:44:48;11.40;99.90
25949;DHT22;13961;51.178;4.448;2024-03-22T05:47:14;11.40;99.90
25949;DHT22;13961;51.178;4.448;2024-03-22T05:49:39;11.30;99.90
25949;DHT22;13961;51.178;4.448;2024-03-22T05:52:05;11.20;99.90
25949;DHT22;13961;51.178;4.448;2024-03-22T05:54:31;11.30;99.90
25949;DHT22;13961;51.178;4.448;2024-03-22T05:56:57;11.30;99.90
25949;DHT22;13961;51.178;4.448;2024-03-22T05:59:22;11.20;99.90
25949;DHT22;13961;51.178;4.448;2024-03-22T06:01:48;11.30;99.90
25949;DHT22;13961;51.178;4.448;2024-03-22T06:04:14;11.30;99.90
25949;DHT22;13961;51.178;4.448;2024-03-22T06:06:41;11.40;99.90
25949;DHT22;13961;51.178;4.448;2024-03-22T06:09:07;11.50;99.90
25949;DHT22;13961;51.178;4.448;2024-03-22T06:11:37;11.50;99.90
25949;DHT22;13961;51.178;4.448;2024-03-22T06:14:02;11.30;99.90
25949;DHT22;13961;51.178;4.448;2024-03-22T06:16:28;11.20;99.90
25949;DHT22;13961;51.178;4.448;2024-03-22T06:18:54;11.30;99.90
25949;DHT22;13961;51.178;4.448;2024-03-22T06:21:20;11.40;99.90
25949;DHT22;13961;51.178;4.448;2024-03-22T06:23:51;11.30;99.90
25949;DHT22;13961;51.178;4.448;2024-03-22T06:26:17;11.40;99.90
25949;DHT22;13961;51.178;4.448;2024-03-22T06:28:43;11.50;99.90
25949;DHT22;13961;51.178;4.448;2024-03-22T06:31:09;11.40;99.90
25949;DHT22;13961;51.178;4.448;2024-03-22T06:33:35;11.50;99.90
25949;DHT22;13961;51.178;4.448;2024-03-22T06:36:01;11.60;99.90
25949;DHT22;13961;51.178;4.448;2024-03-22T06:38:28;11.60;99.90
25949;DHT22;13961;51.178;4.448;2024-03-22T06:40:55;11.50;99.90
25949;DHT22;13961;51.178;4.448;2024-03-22T06:43:21;11.50;99.90
25949;DHT22;13961;51.178;4.448;2024-03-22T06:45:46;11.60;99.90
25949;DHT22;13961;51.178;4.448;2024-03-22T06:48:13;11.60;99.90
25949;DHT22;13961;51.178;4.448;2024-03-22T06:50:41;11.60;99.90
25949;DHT22;13961;51.178;4.448;2024-03-22T06:53:07;11.60;99.90
25949;DHT22;13961;51.178;4.448;2024-03-22T06:55:32;11.60;99.90
25949;DHT22;13961;51.178;4.448;2024-03-22T06:57:58;11.70;99.90
25949;DHT22;13961;51.178;4.448;2024-03-22T07:00:24;11.70;99.90
25949;DHT22;13961;51.178;4.448;2024-03-22T07:02:49;11.70;99.90
25949;DHT22;13961;51.178;4.448;2024-03-22T07:05:15;11.60;99.90
25949;DHT22;13961;51.178;4.448;2024-03-22T07:07:41;11.80;99.90
25949;DHT22;13961;51.178;4.448;2024-03-22T07:10:07;11.90;99.90
25949;DHT22;13961;51.178;4.448;2024-03-22T07:12:33;11.90;99.90
25949;DHT22;13961;51.178;4.448;2024-03-22T07:15:02;11.90;99.90
25949;DHT22;13961;51.178;4.448;2024-03-22T07:17:28;11.70;99.90
25949;DHT22;13961;51.178;4.448;2024-03-22T07:19:54;11.80;99.90
25949;DHT22;13961;51.178;4.448;2024-03-22T07:22:21;11.90;99.90
25949;DHT22;13961;51.178;4.448;2024-03-22T07:24:48;12.00;99.90
25949;DHT22;13961;51.178;4.448;2024-03-22T07:27:14;12.00;99.90
25949;DHT22;13961;51.178;4.448;2024-03-22T07:29:41;12.00;99.90
25949;DHT22;13961;51.178;4.448;2024-03-22T07:32:06;12.00;99.90
25949;DHT22;13961;51.178;4.448;2024-03-22T07:34:32;12.00;99.90
25949;DHT22;13961;51.178;4.448;2024-03-22T07:36:58;12.00;99.90
25949;DHT22;13961;51.178;4.448;2024-03-22T07:39:24;12.00;99.90
25949;DHT22;13961;51.178;4.448;2024-03-22T07:41:50;11.80;99.90
25949;DHT22;13961;51.178;4.448;2024-03-22T07:44:16;12.10;99.90
25949;DHT22;13961;51.178;4.448;2024-03-22T07:46:52;12.10;99.90
25949;DHT22;13961;51.178;4.448;2024-03-22T07:49:18;12.40;99.90
25949;DHT22;13961;51.178;4.448;2024-03-22T07:51:44;12.90;99.90
25949;DHT22;13961;51.178;4.448;2024-03-22T07:54:09;12.90;99.90
25949;DHT22;13961;51.178;4.448;2024-03-22T07:56:35;13.10;99.90
25949;DHT22;13961;51.178;4.448;2024-03-22T07:59:01;13.20;99.90
25949;DHT22;13961;51.178;4.448;2024-03-22T08:01:26;13.10;99.90
25949;DHT22;13961;51.178;4.448;2024-03-22T08:03:52;13.10;99.90
25949;DHT22;13961;51.178;4.448;2024-03-22T08:06:19;13.30;99.90
25949;DHT22;13961;51.178;4.448;2024-03-22T08:08:44;13.10;99.90
25949;DHT22;13961;51.178;4.448;2024-03-22T08:11:10;12.70;99.90
25949;DHT22;13961;51.178;4.448;2024-03-22T08:13:36;12.80;99.90
25949;DHT22;13961;51.178;4.448;2024-03-22T08:16:02;12.90;99.90
25949;DHT22;13961;51.178;4.448;2024-03-22T08:18:28;12.90;99.90
25949;DHT22;13961;51.178;4.448;2024-03-22T08:20:54;12.80;99.90
25949;DHT22;13961;51.178;4.448;2024-03-22T08:23:20;12.70;99.90
25949;DHT22;13961;51.178;4.448;2024-03-22T08:25:48;12.60;99.90
25949;DHT22;13961;51.178;4.448;2024-03-22T08:28:14;12.70;99.90
25949;DHT22;13961;51.178;4.448;2024-03-22T08:30:41;12.70;99.90
25949;DHT22;13961;51.178;4.448;2024-03-22T08:33:07;12.80;99.90
25949;DHT22;13961;51.178;4.448;2024-03-22T08:35:33;12.80;99.90
25949;DHT22;13961;51.178;4.448;2024-03-22T08:37:59;12.90;99.90
25949;DHT22;13961;51.178;4.448;2024-03-22T08:40:25;13.30;99.90
25949;DHT22;13961;51.178;4.448;2024-03-22T08:42:50;13.50;99.90
25949;DHT22;13961;51.178;4.448;2024-03-22T08:45:16;13.50;99.90
25949;DHT22;13961;51.178;4.448;2024-03-22T08:47:43;13.70;99.90
25949;DHT22;13961;51.178;4.448;2024-03-22T08:50:11;13.60;99.90
25949;DHT22;13961;51.178;4.448;2024-03-22T08:52:37;13.30;99.90
25949;DHT22;13961;51.178;4.448;2024-03-22T08:55:04;13.50;99.90
25949;DHT22;13961;51.178;4.448;2024-03-22T08:57:32;13.60;99.90
25949;DHT22;13961;51.178;4.448;2024-03-22T08:59:58;13.10;99.90
25949;DHT22;13961;51.178;4.448;2024-03-22T09:02:23;13.10;99.90
25949;DHT22;13961;51.178;4.448;2024-03-22T09:04:49;13.20;99.90
25949;DHT22;13961;51.178;4.448;2024-03-22T09:07:15;13.20;99.90
25949;DHT22;13961;51.178;4.448;2024-03-22T09:09:40;12.90;99.90
25949;DHT22;13961;51.178;4.448;2024-03-22T09:12:07;13.00;99.90
25949;DHT22;13961;51.178;4.448;2024-03-22T09:14:33;13.10;99.90
25949;DHT22;13961;51.178;4.448;2024-03-22T09:16:58;13.30;99.90
25949;DHT22;13961;51.178;4.448;2024-03-22T09:19:24;13.30;99.90
25949;DHT22;13961;51.178;4.448;2024-03-22T09:21:50;13.30;99.90
25949;DHT22;13961;51.178;4.448;2024-03-22T09:24:16;13.30;99.90
25949;DHT22;13961;51.178;4.448;2024-03-22T09:26:41;13.60;99.90
25949;DHT22;13961;51.178;4.448;2024-03-22T09:29:08;13.20;99.90
25949;DHT22;13961;51.178;4.448;2024-03-22T09:31:33;13.30;99.90
25949;DHT22;13961;51.178;4.448;2024-03-22T09:33:59;13.10;99.90
25949;DHT22;13961;51.178;4.448;2024-03-22T09:36:25;12.90;99.90
25949;DHT22;13961;51.178;4.448;2024-03-22T09:38:51;12.90;99.90
25949;DHT22;13961;51.178;4.448;2024-03-22T09:41:24;13.10;99.90
25949;DHT22;13961;51.178;4.448;2024-03-22T09:43:52;13.30;99.90
25949;DHT22;13961;51.178;4.448;2024-03-22T09:46:20;13.50;99.90
25949;DHT22;13961;51.178;4.448;2024-03-22T09:48:50;13.50;99.90
25949;DHT22;13961;51.178;4.448;2024-03-22T09:51:17;13.30;99.90
25949;DHT22;13961;51.178;4.448;2024-03-22T09:53:48;13.30;99.90
25949;DHT22;13961;51.178;4.448;2024-03-22T09:56:15;13.30;99.90
25949;DHT22;13961;51.178;4.448;2024-03-22T09:58:42;13.30;99.90
25949;DHT22;13961;51.178;4.448;2024-03-22T10:01:08;13.20;99.90
25949;DHT22;13961;51.178;4.448;2024-03-22T10:03:33;13.20;99.90
25949;DHT22;13961;51.178;4.448;2024-03-22T10:06:00;13.10;99.90
25949;DHT22;13961;51.178;4.448;2024-03-22T10:08:25;12.90;99.90
25949;DHT22;13961;51.178;4.448;2024-03-22T10:10:51;12.90;99.90
25949;DHT22;13961;51.178;4.448;2024-03-22T10:13:17;13.00;99.90
25949;DHT22;13961;51.178;4.448;2024-03-22T10:15:43;13.30;99.90
25949;DHT22;13961;51.178;4.448;2024-03-22T10:18:10;13.30;99.90
25949;DHT22;13961;51.178;4.448;2024-03-22T10:20:35;13.40;99.90
25949;DHT22;13961;51.178;4.448;2024-03-22T10:23:01;13.50;99.90
25949;DHT22;13961;51.178;4.448;2024-03-22T10:25:27;13.50;99.90
25949;DHT22;13961;51.178;4.448;2024-03-22T10:27:56;13.40;99.90
25949;DHT22;13961;51.178;4.448;2024-03-22T10:30:25;13.30;99.90
25949;DHT22;13961;51.178;4.448;2024-03-22T10:32:51;13.30;99.90
25949;DHT22;13961;51.178;4.448;2024-03-22T10:35:17;13.70;99.90
25949;DHT22;13961;51.178;4.448;2024-03-22T10:37:43;13.40;99.90
25949;DHT22;13961;51.178;4.448;2024-03-22T10:40:09;13.50;99.90
25949;DHT22;13961;51.178;4.448;2024-03-22T10:42:36;13.50;99.90
25949;DHT22;13961;51.178;4.448;2024-03-22T10:45:03;13.10;99.90
25949;DHT22;13961;51.178;4.448;2024-03-22T10:47:30;12.90;99.90
25949;DHT22;13961;51.178;4.448;2024-03-22T10:50:16;12.70;99.90
25949;DHT22;13961;51.178;4.448;2024-03-22T10:52:50;12.70;99.90
25949;DHT22;13961;51.178;4.448;2024-03-22T10:55:24;12.60;99.90
25949;DHT22;13961;51.178;4.448;2024-03-22T10:57:54;12.70;99.90
25949;DHT22;13961;51.178;4.448;2024-03-22T11:00:27;12.90;99.90
25949;DHT22;13961;51.178;4.448;2024-03-22T11:02:54;12.90;99.90
25949;DHT22;13961;51.178;4.448;2024-03-22T11:05:20;12.90;99.90
25949;DHT22;13961;51.178;4.448;2024-03-22T11:07:46;12.90;99.90
25949;DHT22;13961;51.178;4.448;2024-03-22T11:10:14;12.90;99.90
25949;DHT22;13961;51.178;4.448;2024-03-22T11:12:42;12.70;99.90
25949;DHT22;13961;51.178;4.448;2024-03-22T11:15:09;12.90;99.90
25949;DHT22;13961;51.178;4.448;2024-03-22T11:17:37;12.90;99.90
25949;DHT22;13961;51.178;4.448;2024-03-22T11:20:04;12.90;99.90
25949;DHT22;13961;51.178;4.448;2024-03-22T11:22:31;12.70;99.90
25949;DHT22;13961;51.178;4.448;2024-03-22T11:24:57;12.70;99.90
25949;DHT22;13961;51.178;4.448;2024-03-22T11:27:23;12.90;99.90
25949;DHT22;13961;51.178;4.448;2024-03-22T11:29:49;12.90;99.90
25949;DHT22;13961;51.178;4.448;2024-03-22T11:32:17;12.90;99.90
25949;DHT22;13961;51.178;4.448;2024-03-22T11:34:43;13.10;99.90
25949;DHT22;13961;51.178;4.448;2024-03-22T11:37:09;12.80;99.90
25949;DHT22;13961;51.178;4.448;2024-03-22T11:39:39;12.90;99.90
25949;DHT22;13961;51.178;4.448;2024-03-22T11:42:06;12.70;99.90
25949;DHT22;13961;51.178;4.448;2024-03-22T11:44:33;12.90;99.90
25949;DHT22;13961;51.178;4.448;2024-03-22T11:47:00;13.10;99.90
25949;DHT22;13961;51.178;4.448;2024-03-22T11:49:26;12.90;99.90
25949;DHT22;13961;51.178;4.448;2024-03-22T11:51:52;12.80;99.90
25949;DHT22;13961;51.178;4.448;2024-03-22T11:54:21;12.70;99.90
25949;DHT22;13961;51.178;4.448;2024-03-22T11:56:47;12.90;99.90
25949;DHT22;13961;51.178;4.448;2024-03-22T11:59:13;13.20;99.90
25949;DHT22;13961;51.178;4.448;2024-03-22T12:01:40;13.30;99.90
25949;DHT22;13961;51.178;4.448;2024-03-22T12:04:05;13.40;99.90
25949;DHT22;13961;51.178;4.448;2024-03-22T12:06:36;13.20;99.90
25949;DHT22;13961;51.178;4.448;2024-03-22T12:09:02;13.00;99.90
25949;DHT22;13961;51.178;4.448;2024-03-22T12:11:29;13.10;99.90
25949;DHT22;13961;51.178;4.448;2024-03-22T12:13:54;13.10;99.90
25949;DHT22;13961;51.178;4.448;2024-03-22T12:16:20;13.20;99.90
25949;DHT22;13961;51.178;4.448;2024-03-22T12:18:46;13.10;99.90
25949;DHT22;13961;51.178;4.448;2024-03-22T12:21:11;13.10;99.90
25949;DHT22;13961;51.178;4.448;2024-03-22T12:23:37;13.20;99.90
25949;DHT22;13961;51.178;4.448;2024-03-22T12:26:03;13.30;99.90
25949;DHT22;13961;51.178;4.448;2024-03-22T12:28:29;13.30;99.90
25949;DHT22;13961;51.178;4.448;2024-03-22T12:30:54;13.20;99.90
25949;DHT22;13961;51.178;4.448;2024-03-22T12:33:20;13.30;99.90
25949;DHT22;13961;51.178;4.448;2024-03-22T12:35:46;13.20;99.90
25949;DHT22;13961;51.178;4.448;2024-03-22T12:38:13;13.30;99.90
25949;DHT22;13961;51.178;4.448;2024-03-22T12:40:41;13.20;99.90
25949;DHT22;13961;51.178;4.448;2024-03-22T12:43:09;13.00;99.90
25949;DHT22;13961;51.178;4.448;2024-03-22T12:45:35;13.10;99.90
25949;DHT22;13961;51.178;4.448;2024-03-22T12:48:00;13.20;99.90
25949;DHT22;13961;51.178;4.448;2024-03-22T12:50:27;13.00;99.90
25949;DHT22;13961;51.178;4.448;2024-03-22T12:52:52;13.10;99.90
25949;DHT22;13961;51.178;4.448;2024-03-22T12:55:18;12.70;99.90
25949;DHT22;13961;51.178;4.448;2024-03-22T12:57:45;12.80;99.90
25949;DHT22;13961;51.178;4.448;2024-03-22T13:00:11;13.00;99.90
25949;DHT22;13961;51.178;4.448;2024-03-22T13:02:46;12.90;99.90
25949;DHT22;13961;51.178;4.448;2024-03-22T13:05:12;12.80;99.90
25949;DHT22;13961;51.178;4.448;2024-03-22T13:07:38;12.40;99.90
25949;DHT22;13961;51.178;4.448;2024-03-22T13:10:05;12.40;99.90
25949;DHT22;13961;51.178;4.448;2024-03-22T13:12:31;12.50;99.90
25949;DHT22;13961;51.178;4.448;2024-03-22T13:14:57;12.60;99.90
25949;DHT22;13961;51.178;4.448;2024-03-22T13:17:23;12.80;99.90
25949;DHT22;13961;51.178;4.448;2024-03-22T13:19:49;12.80;99.90
25949;DHT22;13961;51.178;4.448;2024-03-22T13:22:15;12.70;99.90
25949;DHT22;13961;51.178;4.448;2024-03-22T13:24:44;12.50;99.90
25949;DHT22;13961;51.178;4.448;2024-03-22T13:27:11;12.10;99.90
25949;DHT22;13961;51.178;4.448;2024-03-22T13:29:38;12.10;99.90
25949;DHT22;13961;51.178;4.448;2024-03-22T13:32:04;12.30;99.90
25949;DHT22;13961;51.178;4.448;2024-03-22T13:34:35;12.30;99.90
25949;DHT22;13961;51.178;4.448;2024-03-22T13:37:01;12.30;99.90
25949;DHT22;13961;51.178;4.448;2024-03-22T13:39:27;12.50;99.90
25949;DHT22;13961;51.178;4.448;2024-03-22T13:41:56;12.70;99.90
25949;DHT22;13961;51.178;4.448;2024-03-22T13:44:23;12.80;99.90
25949;DHT22;13961;51.178;4.448;2024-03-22T13:46:52;12.60;99.90
25949;DHT22;13961;51.178;4.448;2024-03-22T13:49:18;12.80;99.90
25949;DHT22;13961;51.178;4.448;2024-03-22T13:51:47;12.60;99.90
25949;DHT22;13961;51.178;4.448;2024-03-22T13:54:13;12.70;99.90
25949;DHT22;13961;51.178;4.448;2024-03-22T13:56:39;12.70;99.90
25949;DHT22;13961;51.178;4.448;2024-03-22T13:59:05;12.60;99.90
25949;DHT22;13961;51.178;4.448;2024-03-22T14:01:38;12.50;99.90
25949;DHT22;13961;51.178;4.448;2024-03-22T14:04:04;12.70;99.90
25949;DHT22;13961;51.178;4.448;2024-03-22T14:06:31;12.80;99.90
25949;DHT22;13961;51.178;4.448;2024-03-22T14:08:58;12.80;99.90
25949;DHT22;13961;51.178;4.448;2024-03-22T14:11:27;12.70;99.90
25949;DHT22;13961;51.178;4.448;2024-03-22T14:13:53;12.70;99.90
25949;DHT22;13961;51.178;4.448;2024-03-22T14:16:18;12.80;99.90
25949;DHT22;13961;51.178;4.448;2024-03-22T14:18:44;12.80;99.90
25949;DHT22;13961;51.178;4.448;2024-03-22T14:21:10;12.80;99.90
25949;DHT22;13961;51.178;4.448;2024-03-22T14:23:39;12.60;99.90
25949;DHT22;13961;51.178;4.448;2024-03-22T14:26:05;12.60;99.90
25949;DHT22;13961;51.178;4.448;2024-03-22T14:28:31;12.60;99.90
25949;DHT22;13961;51.178;4.448;2024-03-22T14:30:56;12.70;99.90
25949;DHT22;13961;51.178;4.448;2024-03-22T14:33:22;12.60;99.90
25949;DHT22;13961;51.178;4.448;2024-03-22T14:35:48;12.60;99.90
25949;DHT22;13961;51.178;4.448;2024-03-22T14:38:14;12.40;99.90
25949;DHT22;13961;51.178;4.448;2024-03-22T14:40:39;12.30;99.90
25949;DHT22;13961;51.178;4.448;2024-03-22T14:43:05;12.30;99.90
25949;DHT22;13961;51.178;4.448;2024-03-22T14:45:32;12.50;99.90
25949;DHT22;13961;51.178;4.448;2024-03-22T14:47:57;12.50;99.90
25949;DHT22;13961;51.178;4.448;2024-03-22T14:50:23;12.50;99.90
25949;DHT22;13961;51.178;4.448;2024-03-22T14:52:49;12.50;99.90
25949;DHT22;13961;51.178;4.448;2024-03-22T14:55:15;12.30;99.90
25949;DHT22;13961;51.178;4.448;2024-03-22T14:57:41;12.20;99.90
25949;DHT22;13961;51.178;4.448;2024-03-22T15:00:07;12.20;99.90
25949;DHT22;13961;51.178;4.448;2024-03-22T15:02:36;12.10;99.90
25949;DHT22;13961;51.178;4.448;2024-03-22T15:05:02;12.00;99.90
25949;DHT22;13961;51.178;4.448;2024-03-22T15:07:30;11.80;99.90
25949;DHT22;13961;51.178;4.448;2024-03-22T15:09:56;11.90;99.90
25949;DHT22;13961;51.178;4.448;2024-03-22T15:12:22;12.00;99.90
25949;DHT22;13961;51.178;4.448;2024-03-22T15:14:50;12.10;99.90
25949;DHT22;13961;51.178;4.448;2024-03-22T15:17:18;12.20;99.90
25949;DHT22;13961;51.178;4.448;2024-03-22T15:19:48;12.20;99.90
25949;DHT22;13961;51.178;4.448;2024-03-22T15:22:16;12.10;99.90
25949;DHT22;13961;51.178;4.448;2024-03-22T15:24:46;12.20;99.90